Time;durP1;ratioP1;P1;durP2;ratioP2;P2;SDS_P1;SDS_P2;PMS_P1;PMS_P2;Temp;Humidity;BMP_temperature;BMP_pressure;BME280_temperature;BME280_humidity;BME280_pressure;Samples;Min_cycle;Max_cycle;Signal;HPM_P1;HPM_P2
2022/03/13 00:00:54;;;;;;;25.42;18.55;;;;;;;6.92;67.63;101000.19;5028423;28;20077;-84
2022/03/13 00:03:22;;;;;;;23.67;17.13;;;;;;;6.97;67.37;101001.47;5017781;28;20448;-83
2022/03/13 00:05:52;;;;;;;26.45;18.38;;;;;;;6.92;67.47;100995.81;5024115;28;20050;-84
2022/03/13 00:08:22;;;;;;;28.73;18.35;;;;;;;6.89;67.61;100998.66;5024111;28;20062;-84
2022/03/13 00:10:56;;;;;;;24.98;18.33;;;;;;;6.83;67.94;100991.34;5024363;28;20200;-85
2022/03/13 00:13:24;;;;;;;26.83;18.52;;;;;;;6.82;67.74;100986.25;5022121;28;20058;-81
2022/03/13 00:15:52;;;;;;;25.30;17.90;;;;;;;6.68;67.97;100978.72;5022439;28;20061;-81
2022/03/13 00:18:19;;;;;;;24.65;18.38;;;;;;;6.75;67.96;100985.91;5023361;28;20115;-82
2022/03/13 00:20:46;;;;;;;24.52;17.58;;;;;;;6.76;67.78;100984.13;5023272;28;20054;-81
2022/03/13 00:23:13;;;;;;;28.65;18.70;;;;;;;6.68;67.86;100992.53;5005641;28;20488;-81
2022/03/13 00:25:40;;;;;;;23.88;17.55;;;;;;;6.55;68.33;100978.91;4991776;28;20072;-81
2022/03/13 00:28:08;;;;;;;25.85;18.35;;;;;;;6.48;69.12;100982.91;4989032;28;20053;-81
2022/03/13 00:30:35;;;;;;;26.08;18.00;;;;;;;6.47;69.06;100976.91;4993388;28;20470;-81
2022/03/13 00:33:02;;;;;;;23.52;17.52;;;;;;;6.50;68.38;100975.81;5002801;28;20065;-81
2022/03/13 00:35:29;;;;;;;25.63;18.63;;;;;;;6.52;68.49;100979.13;4994681;28;20129;-81
2022/03/13 00:37:56;;;;;;;27.80;18.75;;;;;;;6.46;68.45;100971.81;4990903;28;20109;-82
2022/03/13 00:40:22;;;;;;;24.85;18.10;;;;;;;6.47;68.55;100973.47;4992936;28;20074;-82
2022/03/13 00:42:49;;;;;;;31.42;18.30;;;;;;;6.45;68.36;100976.19;4992825;28;20199;-81
2022/03/13 00:45:17;;;;;;;25.25;18.38;;;;;;;6.45;68.66;100973.59;4987160;28;20046;-81
2022/03/13 00:47:44;;;;;;;28.25;18.35;;;;;;;6.47;68.25;100968.28;4988712;28;20102;-81
2022/03/13 00:50:11;;;;;;;28.70;18.30;;;;;;;6.61;67.37;100968.00;4985378;28;20078;-81
2022/03/13 00:52:37;;;;;;;28.58;18.58;;;;;;;6.63;66.75;100960.88;4987782;28;20062;-82
2022/03/13 00:55:05;;;;;;;24.98;17.67;;;;;;;6.71;66.28;100957.66;4986287;28;20134;-82
2022/03/13 00:57:32;;;;;;;28.63;18.52;;;;;;;6.72;66.01;100954.94;4986632;28;20192;-82
2022/03/13 00:59:59;;;;;;;25.13;16.75;;;;;;;6.78;65.77;100951.84;4990036;28;20054;-82
2022/03/13 01:02:27;;;;;;;30.10;17.58;;;;;;;6.75;65.65;100946.06;4989169;28;20106;-81
2022/03/13 01:04:54;;;;;;;25.27;17.08;;;;;;;6.72;66.12;100948.91;5000129;28;20046;-82
2022/03/13 01:07:21;;;;;;;24.15;16.88;;;;;;;6.66;66.01;100934.63;5000277;28;20058;-81
2022/03/13 01:09:47;;;;;;;26.38;16.92;;;;;;;6.63;66.26;100929.69;4999853;28;20082;-81
2022/03/13 01:12:14;;;;;;;26.63;17.75;;;;;;;6.67;65.91;100933.69;5002513;28;20158;-82
2022/03/13 01:14:41;;;;;;;27.13;17.35;;;;;;;6.58;65.70;100935.28;5000900;28;20136;-83
2022/03/13 01:17:09;;;;;;;24.88;17.17;;;;;;;6.57;65.43;100928.41;5000745;28;20128;-82
2022/03/13 01:19:38;;;;;;;25.88;17.70;;;;;;;6.45;65.68;100925.97;5000253;28;20429;-82
2022/03/13 01:22:05;;;;;;;23.15;17.30;;;;;;;6.47;65.49;100927.50;5001516;28;20069;-82
2022/03/13 01:24:34;;;;;;;25.38;17.60;;;;;;;6.45;65.21;100925.97;5001248;28;20077;-80
2022/03/13 01:27:03;;;;;;;27.10;16.52;;;;;;;6.36;65.69;100926.69;4999919;28;20390;-84
2022/03/13 01:29:31;;;;;;;30.40;18.40;;;;;;;6.33;65.60;100922.56;5000300;28;20150;-81
2022/03/13 01:31:58;;;;;;;30.35;17.38;;;;;;;6.26;65.81;100911.81;5000233;28;20058;-82
2022/03/13 01:34:44;;;;;;;24.63;17.23;;;;;;;6.19;65.74;100905.44;5000324;28;20074;-82
2022/03/13 01:37:30;;;;;;;26.30;17.35;;;;;;;6.12;65.98;100914.72;5000208;28;20089;-82
2022/03/13 01:39:58;;;;;;;26.95;16.65;;;;;;;6.09;65.10;100907.16;4999571;28;20101;-79
2022/03/13 01:42:26;;;;;;;28.35;17.58;;;;;;;6.00;65.54;100900.06;4999297;28;20101;-80
2022/03/13 01:44:53;;;;;;;24.20;17.20;;;;;;;5.96;64.79;100901.25;4999823;28;20097;-80
2022/03/13 01:47:20;;;;;;;30.90;17.60;;;;;;;5.91;64.52;100905.97;4999348;28;20463;-79
2022/03/13 01:49:48;;;;;;;23.75;16.10;;;;;;;5.94;63.46;100901.38;4999852;28;20109;-80
2022/03/13 01:52:16;;;;;;;23.52;15.73;;;;;;;5.97;63.46;100900.31;5000149;28;20129;-80
2022/03/13 01:54:44;;;;;;;23.77;16.70;;;;;;;6.01;63.34;100891.34;4999638;28;20056;-79
2022/03/13 01:57:16;;;;;;;24.60;15.52;;;;;;;6.05;62.46;100886.72;4999875;28;20056;-81
2022/03/13 01:59:43;;;;;;;23.90;16.20;;;;;;;6.01;62.19;100891.34;4998867;28;20078;-81
2022/03/13 02:02:10;;;;;;;22.75;15.75;;;;;;;5.99;62.20;100898.41;4999704;28;20465;-80
2022/03/13 02:04:36;;;;;;;22.30;16.33;;;;;;;6.04;62.08;100890.28;4999300;28;20060;-81
2022/03/13 02:07:04;;;;;;;22.50;15.43;;;;;;;6.04;61.37;100892.88;4999918;28;20149;-83
2022/03/13 02:09:31;;;;;;;23.45;14.85;;;;;;;6.07;60.94;100882.25;4999560;28;20109;-81
2022/03/13 02:11:59;;;;;;;22.73;15.30;;;;;;;6.06;60.25;100884.00;4999965;28;20077;-83
2022/03/13 02:14:26;;;;;;;22.10;15.02;;;;;;;6.08;60.19;100881.28;4998924;28;20046;-82
2022/03/13 02:16:54;;;;;;;24.80;14.25;;;;;;;6.12;58.77;100867.94;5000171;28;20054;-82
2022/03/13 02:19:20;;;;;;;22.85;15.07;;;;;;;6.09;59.01;100870.78;4999761;28;20086;-82
2022/03/13 02:21:52;;;;;;;28.15;15.20;;;;;;;6.10;58.54;100872.44;5001006;28;20046;-81
2022/03/13 02:24:24;;;;;;;22.27;15.60;;;;;;;6.08;58.12;100865.69;5001025;28;20050;-81
2022/03/13 02:27:00;;;;;;;22.63;15.17;;;;;;;6.13;57.79;100873.97;5003764;28;20054;-81
2022/03/13 02:29:28;;;;;;;21.52;14.25;;;;;;;6.13;57.11;100874.78;5014351;28;20047;-81
2022/03/13 02:31:54;;;;;;;21.95;14.07;;;;;;;6.04;57.59;100859.91;5016063;28;20041;-82
2022/03/13 02:34:21;;;;;;;24.90;15.32;;;;;;;6.03;57.51;100862.63;5015983;28;20050;-81
2022/03/13 02:37:01;;;;;;;21.00;13.90;;;;;;;5.95;57.41;100860.66;5005125;28;20137;-81
2022/03/13 02:39:36;;;;;;;19.65;14.10;;;;;;;5.95;57.40;100856.28;4999171;28;20057;-80
2022/03/13 02:42:04;;;;;;;21.85;14.50;;;;;;;5.98;57.21;100863.00;5000737;28;20054;-81
2022/03/13 02:44:31;;;;;;;19.98;14.15;;;;;;;6.01;56.70;100860.16;5000291;28;20085;-81
2022/03/13 02:47:00;;;;;;;19.25;13.88;;;;;;;5.97;56.93;100861.34;5000865;28;20110;-81
2022/03/13 02:49:29;;;;;;;20.70;13.93;;;;;;;5.94;56.93;100848.59;4999651;28;20141;-81
2022/03/13 02:51:59;;;;;;;21.70;14.00;;;;;;;5.91;56.72;100849.66;5000045;28;20499;-80
2022/03/13 02:54:26;;;;;;;19.63;13.15;;;;;;;5.98;56.01;100852.59;4998917;28;20468;-81
2022/03/13 02:56:55;;;;;;;20.85;13.35;;;;;;;6.02;54.77;100850.59;4997706;28;20050;-81
2022/03/13 02:59:22;;;;;;;19.55;13.73;;;;;;;6.02;55.03;100830.63;4997949;28;20082;-81
2022/03/13 03:01:50;;;;;;;21.15;13.25;;;;;;;6.02;54.71;100829.81;4999098;28;20183;-80
2022/03/13 03:04:17;;;;;;;21.38;13.80;;;;;;;5.98;54.59;100850.00;5000197;28;20050;-81
2022/03/13 03:06:59;;;;;;;20.02;13.80;;;;;;;5.90;54.58;100847.19;4999518;28;20057;-81
2022/03/13 03:09:28;;;;;;;21.75;13.77;;;;;;;5.83;55.99;100843.38;5000120;28;20084;-81
2022/03/13 03:11:57;;;;;;;20.00;13.60;;;;;;;5.70;55.34;100847.88;5001113;28;20047;-81
2022/03/13 03:14:24;;;;;;;21.80;13.48;;;;;;;5.68;56.09;100856.63;5009530;28;20483;-80
2022/03/13 03:16:53;;;;;;;21.45;13.80;;;;;;;5.55;57.07;100849.91;5007298;28;20080;-80
2022/03/13 03:19:21;;;;;;;18.80;12.95;;;;;;;5.52;57.29;100848.38;4998503;28;20136;-80
2022/03/13 03:21:48;;;;;;;20.80;13.85;;;;;;;5.45;56.98;100852.38;4998287;28;20084;-80
2022/03/13 03:24:18;;;;;;;22.60;13.75;;;;;;;5.32;57.69;100849.06;4997872;28;20524;-81
2022/03/13 03:26:45;;;;;;;19.38;13.00;;;;;;;5.32;57.25;100862.03;4997967;28;20113;-80
2022/03/13 03:29:13;;;;;;;18.40;13.38;;;;;;;5.25;57.66;100851.31;4997617;28;20529;-80
2022/03/13 03:31:41;;;;;;;22.30;13.90;;;;;;;5.18;57.28;100844.94;4997971;28;20050;-81
2022/03/13 03:34:12;;;;;;;22.88;14.23;;;;;;;5.25;56.64;100850.47;4997221;28;20050;-80
2022/03/13 03:36:44;;;;;;;19.90;13.82;;;;;;;5.18;56.66;100851.91;4996739;28;20104;-80
2022/03/13 03:39:12;;;;;;;19.43;13.40;;;;;;;5.15;56.54;100844.34;4997254;28;20129;-80
2022/03/13 03:41:39;;;;;;;20.98;13.50;;;;;;;5.17;56.50;100847.66;4997837;28;20645;-80
2022/03/13 03:44:07;;;;;;;18.42;12.73;;;;;;;5.22;55.42;100845.50;4997411;28;20350;-81
2022/03/13 03:46:35;;;;;;;19.15;13.98;;;;;;;5.19;56.02;100838.00;4996728;28;20050;-81
2022/03/13 03:49:02;;;;;;;19.63;13.23;;;;;;;5.22;55.12;100848.09;4997149;28;20119;-82
2022/03/13 03:51:29;;;;;;;20.90;13.00;;;;;;;5.21;55.60;100841.28;4998166;28;20133;-82
2022/03/13 03:53:56;;;;;;;21.45;13.25;;;;;;;5.21;54.60;100849.06;4998239;28;20133;-80
2022/03/13 03:56:22;;;;;;;19.75;12.95;;;;;;;5.22;54.83;100840.31;4997036;28;20132;-82
2022/03/13 03:58:49;;;;;;;22.85;13.55;;;;;;;5.25;54.01;100840.09;4997779;28;20141;-80
2022/03/13 04:01:16;;;;;;;18.50;12.52;;;;;;;5.23;54.00;100844.56;4998103;28;20054;-81
2022/03/13 04:03:44;;;;;;;21.35;12.27;;;;;;;5.17;54.58;100837.28;5002272;28;20058;-80
2022/03/13 04:06:11;;;;;;;21.52;13.10;;;;;;;5.28;53.93;100843.28;5000035;28;20054;-80
2022/03/13 04:08:37;;;;;;;25.27;13.57;;;;;;;5.23;53.55;100853.19;5000097;28;20205;-81
2022/03/13 04:11:04;;;;;;;18.70;12.05;;;;;;;5.41;53.08;100855.34;5003610;28;20110;-81
2022/03/13 04:13:33;;;;;;;23.67;13.18;;;;;;;5.44;52.13;100844.72;5004341;28;20108;-81
2022/03/13 04:15:59;;;;;;;19.25;13.63;;;;;;;5.53;52.25;100842.25;5001674;28;20054;-81
2022/03/13 04:18:26;;;;;;;19.88;13.52;;;;;;;5.58;52.52;100837.53;4999534;28;20074;-81
2022/03/13 04:20:54;;;;;;;20.20;12.48;;;;;;;5.64;51.69;100850.03;5003044;28;20114;-83
2022/03/13 04:23:20;;;;;;;18.75;13.23;;;;;;;5.67;51.36;100841.97;5002087;28;20472;-82
2022/03/13 04:25:48;;;;;;;18.25;12.45;;;;;;;5.71;51.51;100839.16;4999733;28;20058;-82
2022/03/13 04:28:16;;;;;;;20.52;12.80;;;;;;;5.79;50.05;100829.81;5002149;28;20073;-81
2022/03/13 04:30:44;;;;;;;20.73;13.60;;;;;;;5.91;49.26;100833.25;5003702;28;20070;-80
2022/03/13 04:33:11;;;;;;;20.63;12.77;;;;;;;5.96;48.90;100828.53;5002560;28;20042;-80
2022/03/13 04:35:37;;;;;;;20.80;13.15;;;;;;;6.04;48.50;100828.75;5000460;28;20057;-81
2022/03/13 04:38:05;;;;;;;19.20;13.57;;;;;;;6.08;48.08;100829.34;4998789;28;20104;-80
2022/03/13 04:40:32;;;;;;;18.70;12.80;;;;;;;6.02;49.37;100850.59;5000357;28;20054;-81
2022/03/13 04:42:59;;;;;;;21.17;12.60;;;;;;;6.08;49.32;100850.13;5000449;28;20082;-81
2022/03/13 04:45:26;;;;;;;21.27;13.07;;;;;;;6.07;49.01;100838.06;5001017;28;20054;-82
2022/03/13 04:47:53;;;;;;;19.30;12.52;;;;;;;6.07;48.80;100838.91;5000554;28;20090;-81
2022/03/13 04:50:20;;;;;;;20.00;12.85;;;;;;;5.98;49.58;100844.81;5000206;28;20051;-83
2022/03/13 04:52:46;;;;;;;21.95;12.45;;;;;;;5.93;48.81;100836.56;5000526;28;20114;-82
2022/03/13 04:55:14;;;;;;;20.63;12.68;;;;;;;5.89;48.36;100833.38;5000934;28;20078;-82
2022/03/13 04:57:41;;;;;;;22.05;12.68;;;;;;;5.96;47.90;100820.75;5001264;28;20077;-82
2022/03/13 05:00:09;;;;;;;20.73;12.50;;;;;;;6.03;47.40;100837.50;4998021;28;20078;-82
2022/03/13 05:02:35;;;;;;;18.13;12.63;;;;;;;6.03;47.25;100842.69;4997224;28;20466;-80
2022/03/13 05:05:02;;;;;;;19.92;12.82;;;;;;;6.01;47.59;100843.75;4997378;28;20092;-80
2022/03/13 05:07:29;;;;;;;21.85;13.25;;;;;;;6.06;47.08;100831.22;5020522;23;20118;-83
2022/03/13 05:09:56;;;;;;;18.98;11.98;;;;;;;6.07;46.51;100835.47;5007373;28;20118;-82
2022/03/13 05:12:28;;;;;;;19.55;12.55;;;;;;;6.06;47.13;100826.84;4999076;28;20078;-83
2022/03/13 05:14:55;;;;;;;18.25;12.07;;;;;;;6.15;46.69;100833.88;4998797;28;20065;-83
2022/03/13 05:17:22;;;;;;;16.83;11.60;;;;;;;6.15;46.35;100822.66;4998657;28;20050;-84
2022/03/13 05:19:49;;;;;;;19.20;12.50;;;;;;;6.16;46.73;100825.16;4998290;28;20097;-84
2022/03/13 05:22:16;;;;;;;17.48;11.68;;;;;;;6.17;46.12;100829.41;4999631;28;20106;-83
2022/03/13 05:24:42;;;;;;;18.02;12.63;;;;;;;6.20;45.66;100823.97;5000455;28;20050;-81
2022/03/13 05:27:09;;;;;;;19.63;12.65;;;;;;;6.22;45.69;100822.06;5000551;28;20061;-83
2022/03/13 05:29:37;;;;;;;19.90;12.68;;;;;;;6.23;45.39;100821.13;5000884;28;20081;-83
2022/03/13 05:32:04;;;;;;;17.25;11.80;;;;;;;6.29;44.79;100822.41;5000097;28;20106;-84
2022/03/13 05:34:31;;;;;;;18.80;12.40;;;;;;;6.29;44.62;100825.81;5000867;28;20109;-83
2022/03/13 05:36:58;;;;;;;18.38;12.10;;;;;;;6.27;44.92;100838.13;5001776;28;20133;-82
2022/03/13 05:39:24;;;;;;;21.83;12.20;;;;;;;6.31;44.20;100829.13;4999190;28;20138;-83
2022/03/13 05:41:51;;;;;;;20.63;13.02;;;;;;;6.25;44.85;100842.59;5000812;28;20134;-84
2022/03/13 05:44:17;;;;;;;19.80;12.90;;;;;;;6.22;45.03;100831.63;4999799;28;20062;-84
2022/03/13 05:46:45;;;;;;;19.38;11.88;;;;;;;6.23;44.83;100839.31;4999542;28;20145;-83
2022/03/13 05:49:12;;;;;;;18.33;12.10;;;;;;;6.17;45.20;100838.97;5000444;28;20054;-84
2022/03/13 05:51:41;;;;;;;19.52;12.93;;;;;;;6.14;45.66;100842.66;5004159;28;20129;-84
2022/03/13 05:54:08;;;;;;;17.42;12.40;;;;;;;6.14;45.81;100855.66;5004928;28;20050;-84
2022/03/13 05:56:34;;;;;;;16.58;12.07;;;;;;;6.11;45.73;100845.50;5011274;28;20050;-84
2022/03/13 05:59:01;;;;;;;22.15;12.93;;;;;;;6.07;46.10;100854.50;5011756;28;20054;-85
2022/03/13 06:01:28;;;;;;;22.80;12.35;;;;;;;6.08;46.54;100858.75;5012440;28;20113;-84
2022/03/13 06:03:57;;;;;;;19.17;12.65;;;;;;;6.07;46.29;100854.50;5003175;28;20114;-84
2022/03/13 06:06:24;;;;;;;19.17;12.43;;;;;;;6.09;46.29;100855.19;5000068;28;20513;-84
2022/03/13 06:08:52;;;;;;;21.85;12.65;;;;;;;6.09;46.78;100857.78;5000502;28;20193;-84
2022/03/13 06:11:19;;;;;;;18.88;12.55;;;;;;;6.06;46.41;100850.25;5000874;28;20057;-84
2022/03/13 06:13:46;;;;;;;19.33;12.88;;;;;;;6.01;46.44;100844.56;5011229;28;20050;-84
2022/03/13 06:16:14;;;;;;;17.95;12.95;;;;;;;6.08;45.86;100848.34;5022347;28;20077;-83
2022/03/13 06:18:45;;;;;;;17.23;12.18;;;;;;;6.06;45.96;100847.63;5022017;28;20061;-83
2022/03/13 06:21:15;;;;;;;18.15;12.30;;;;;;;6.16;46.35;100852.91;5023375;28;20053;-83
2022/03/13 06:23:44;;;;;;;18.80;12.77;;;;;;;6.18;45.40;100857.03;5021889;28;20050;-83
2022/03/13 06:26:11;;;;;;;19.23;12.73;;;;;;;6.16;44.95;100847.72;5023203;28;20050;-85
2022/03/13 06:28:38;;;;;;;17.00;11.98;;;;;;;6.17;45.43;100847.59;5025007;28;20053;-85
2022/03/13 06:31:06;;;;;;;17.88;12.45;;;;;;;6.20;44.44;100834.34;5025970;28;20515;-85
2022/03/13 06:33:33;;;;;;;17.42;12.63;;;;;;;6.21;44.97;100836.00;5025843;28;20057;-85
2022/03/13 06:35:59;;;;;;;17.92;12.25;;;;;;;6.30;44.47;100835.28;5021152;28;20053;-85
2022/03/13 06:38:27;;;;;;;19.85;12.63;;;;;;;6.54;44.01;100847.25;5020521;28;20117;-84
2022/03/13 06:40:54;;;;;;;19.83;12.60;;;;;;;6.47;44.11;100854.72;5016667;28;20128;-85
2022/03/13 06:43:21;;;;;;;20.67;13.02;;;;;;;6.46;44.31;100857.44;5011737;28;20465;-84
2022/03/13 06:45:47;;;;;;;18.08;12.40;;;;;;;6.43;44.18;100848.09;5018121;28;20057;-84
2022/03/13 06:48:15;;;;;;;19.23;12.68;;;;;;;6.41;45.02;100846.59;5016189;28;20408;-85
2022/03/13 06:50:45;;;;;;;18.92;12.10;;;;;;;6.37;44.33;100851.19;5018130;28;20064;-83
2022/03/13 06:53:11;;;;;;;17.65;12.38;;;;;;;6.46;44.23;100855.66;5014705;28;20088;-84
2022/03/13 06:55:40;;;;;;;19.20;12.50;;;;;;;6.41;44.19;100841.38;4994507;28;20058;-84
2022/03/13 06:58:06;;;;;;;20.30;12.52;;;;;;;6.45;44.64;100851.41;4999493;28;20133;-84
2022/03/13 07:00:33;;;;;;;21.23;13.38;;;;;;;6.51;44.58;100857.88;4995949;28;20125;-83
2022/03/13 07:03:00;;;;;;;24.15;13.02;;;;;;;6.56;44.13;100851.38;4996332;28;20078;-84
2022/03/13 07:05:27;;;;;;;20.13;13.43;;;;;;;6.60;43.75;100857.16;5014164;28;20121;-85
2022/03/13 07:07:54;;;;;;;19.52;12.13;;;;;;;6.71;43.44;100854.47;5015423;28;20136;-86
2022/03/13 07:10:21;;;;;;;18.25;12.68;;;;;;;6.75;43.48;100855.03;4995735;28;20393;-84
2022/03/13 07:12:55;;;;;;;17.80;13.10;;;;;;;6.93;43.34;100856.97;4995294;28;20145;-84
2022/03/13 07:15:22;;;;;;;17.92;12.70;;;;;;;7.04;43.62;100866.50;4994843;28;20042;-85
2022/03/13 07:17:49;;;;;;;20.40;12.13;;;;;;;7.30;41.98;100867.72;4996559;28;20499;-84
2022/03/13 07:20:16;;;;;;;18.00;12.32;;;;;;;7.41;41.55;100853.81;4997546;28;20050;-86
2022/03/13 07:22:47;;;;;;;19.67;13.05;;;;;;;7.23;42.07;100861.38;4996652;28;20054;-86
2022/03/13 07:25:14;;;;;;;20.45;12.38;;;;;;;7.24;42.52;100859.59;4996137;28;20105;-86
2022/03/13 07:27:43;;;;;;;20.73;13.45;;;;;;;7.29;42.36;100860.03;4996309;28;20049;-87
2022/03/13 07:30:13;;;;;;;24.20;12.60;;;;;;;7.52;41.35;100861.53;4995819;28;20061;-87
2022/03/13 07:32:41;;;;;;;21.17;12.88;;;;;;;7.78;41.10;100866.28;4996634;28;20053;-87
2022/03/13 07:35:08;;;;;;;17.88;12.52;;;;;;;7.78;41.23;100867.09;4996271;28;20056;-87
2022/03/13 07:37:35;;;;;;;18.98;12.82;;;;;;;7.91;40.06;100866.88;4995732;28;20129;-87
2022/03/13 07:40:02;;;;;;;22.63;12.55;;;;;;;7.74;40.26;100865.72;4995548;28;20683;-86
2022/03/13 07:42:29;;;;;;;18.13;13.07;;;;;;;7.62;40.99;100866.75;4996503;28;20434;-86
2022/03/13 07:44:56;;;;;;;19.55;12.35;;;;;;;7.52;41.14;100866.75;4996441;28;20532;-85
2022/03/13 07:47:25;;;;;;;19.30;13.43;;;;;;;7.56;41.58;100864.72;4996896;28;20485;-86
2022/03/13 07:49:52;;;;;;;17.98;12.20;;;;;;;7.54;41.08;100859.63;4994462;28;20117;-86
2022/03/13 07:52:19;;;;;;;18.08;12.93;;;;;;;7.58;40.98;100855.78;4995059;28;20054;-86
2022/03/13 07:54:46;;;;;;;19.60;12.85;;;;;;;7.44;41.62;100868.34;4997520;28;20097;-85
2022/03/13 07:57:13;;;;;;;20.95;11.82;;;;;;;7.36;41.72;100861.19;4994300;28;20508;-86
2022/03/13 07:59:39;;;;;;;19.77;13.00;;;;;;;7.30;42.04;100862.53;4993974;28;20085;-86
2022/03/13 08:02:07;;;;;;;20.05;12.18;;;;;;;7.28;41.78;100861.81;4994142;28;20060;-86
2022/03/13 08:04:35;;;;;;;20.05;12.38;;;;;;;7.39;41.73;100855.72;4993586;28;20132;-85
2022/03/13 08:07:01;;;;;;;20.45;12.50;;;;;;;7.79;41.25;100862.72;4993041;28;20050;-86
2022/03/13 08:09:28;;;;;;;18.70;12.43;;;;;;;8.27;40.09;100857.63;4992581;28;20047;-85
2022/03/13 08:11:55;;;;;;;18.58;12.68;;;;;;;8.13;40.10;100855.38;4993912;28;20133;-85
2022/03/13 08:14:21;;;;;;;18.10;12.02;;;;;;;8.28;39.36;100841.84;4994027;28;20050;-87
2022/03/13 08:16:48;;;;;;;20.30;13.00;;;;;;;8.10;39.56;100855.66;4995617;28;20177;-86
2022/03/13 08:19:14;;;;;;;24.05;13.13;;;;;;;7.94;39.60;100861.41;5001366;28;20093;-86
2022/03/13 08:21:43;;;;;;;16.88;12.23;;;;;;;7.97;39.47;100866.34;4997811;28;20477;-86
2022/03/13 08:24:09;;;;;;;21.67;13.35;;;;;;;7.84;39.74;100860.53;5002369;28;20077;-87
2022/03/13 08:26:38;;;;;;;18.92;13.68;;;;;;;7.94;40.06;100861.41;5006763;28;20050;-86
2022/03/13 08:29:05;;;;;;;17.50;12.98;;;;;;;8.00;40.42;100871.28;4997000;28;20049;-86
2022/03/13 08:31:32;;;;;;;16.00;12.23;;;;;;;8.04;40.21;100867.44;4995567;28;20070;-84
2022/03/13 08:33:59;;;;;;;17.25;12.95;;;;;;;8.12;40.79;100864.16;4993845;28;20050;-86
2022/03/13 08:36:25;;;;;;;18.55;13.27;;;;;;;8.23;40.39;100857.06;4993160;28;20105;-84
2022/03/13 08:38:53;;;;;;;17.10;12.40;;;;;;;8.44;39.36;100853.56;4994064;28;20061;-85
2022/03/13 08:41:20;;;;;;;18.15;13.02;;;;;;;8.53;38.32;100857.91;4994999;28;20061;-84
2022/03/13 08:43:47;;;;;;;21.08;12.73;;;;;;;8.87;38.29;100856.53;4995035;28;20137;-85
2022/03/13 08:46:13;;;;;;;17.90;12.85;;;;;;;9.11;37.71;100847.41;4993987;28;20112;-86
2022/03/13 08:48:40;;;;;;;19.08;13.40;;;;;;;9.28;37.30;100852.75;4994887;28;20066;-87
2022/03/13 08:51:08;;;;;;;18.35;12.05;;;;;;;9.54;37.44;100860.75;4994782;28;20062;-86
2022/03/13 08:53:34;;;;;;;19.02;13.48;;;;;;;9.48;37.46;100855.25;4995064;28;20046;-86
2022/03/13 08:56:02;;;;;;;21.70;13.68;;;;;;;9.29;38.20;100851.78;4994768;28;20137;-86
2022/03/13 08:58:29;;;;;;;20.13;13.05;;;;;;;9.27;37.76;100852.88;4995926;28;20060;-86
2022/03/13 09:00:56;;;;;;;18.88;13.15;;;;;;;9.24;38.30;100855.78;4995865;28;20493;-87
2022/03/13 09:03:24;;;;;;;19.13;13.63;;;;;;;9.32;38.46;100850.66;4994209;28;20051;-87
2022/03/13 09:05:51;;;;;;;18.13;12.93;;;;;;;9.22;38.33;100844.66;4993863;28;20057;-86
2022/03/13 09:08:17;;;;;;;19.38;13.05;;;;;;;9.14;39.24;100849.75;4994953;28;20219;-87
2022/03/13 09:10:44;;;;;;;18.33;12.48;;;;;;;9.05;39.10;100840.97;4996819;28;20056;-86
2022/03/13 09:13:13;;;;;;;21.30;13.27;;;;;;;8.96;39.05;100839.22;4997047;28;20047;-83
2022/03/13 09:15:39;;;;;;;18.88;13.13;;;;;;;9.10;38.92;100835.31;4997017;28;20124;-83
2022/03/13 09:18:06;;;;;;;19.13;13.18;;;;;;;9.01;39.06;100841.38;4996455;28;20056;-84
2022/03/13 09:20:33;;;;;;;22.27;13.77;;;;;;;9.01;39.42;100838.78;4997626;28;20077;-84
2022/03/13 09:23:00;;;;;;;20.30;13.50;;;;;;;9.13;39.06;100850.72;4997163;28;20567;-83
2022/03/13 09:25:26;;;;;;;21.17;13.32;;;;;;;9.14;39.21;100847.13;5004200;28;20054;-83
2022/03/13 09:27:53;;;;;;;20.15;14.05;;;;;;;9.10;38.97;100845.78;5000183;28;20568;-83
2022/03/13 09:30:21;;;;;;;19.42;13.45;;;;;;;9.10;39.03;100845.78;4997695;28;20136;-84
2022/03/13 09:32:49;;;;;;;22.13;14.10;;;;;;;9.10;38.77;100848.38;4998270;28;20077;-83
2022/03/13 09:35:16;;;;;;;18.00;13.25;;;;;;;9.16;38.71;100855.66;4998103;28;20050;-83
2022/03/13 09:37:42;;;;;;;21.38;13.15;;;;;;;9.22;39.02;100849.88;4998274;28;20056;-84
2022/03/13 09:40:10;;;;;;;20.90;14.32;;;;;;;9.35;38.46;100845.16;4998493;28;20137;-83
2022/03/13 09:42:37;;;;;;;18.30;13.48;;;;;;;9.37;38.34;100845.03;4999301;28;20110;-83
2022/03/13 09:45:04;;;;;;;22.70;14.13;;;;;;;9.47;38.42;100849.22;5005048;28;20042;-83
2022/03/13 09:47:32;;;;;;;23.05;13.98;;;;;;;9.57;38.50;100852.63;5007458;28;20093;-83
2022/03/13 09:49:59;;;;;;;20.35;13.30;;;;;;;9.70;38.20;100851.47;5006979;28;20054;-83
2022/03/13 09:52:26;;;;;;;18.83;13.35;;;;;;;9.77;38.27;100849.94;5007293;28;20158;-84
2022/03/13 09:54:52;;;;;;;18.42;13.48;;;;;;;9.90;37.85;100834.72;5005724;28;20085;-83
2022/03/13 09:57:20;;;;;;;22.08;14.88;;;;;;;10.16;37.64;100838.25;5001800;28;20050;-84
2022/03/13 09:59:47;;;;;;;24.48;14.45;;;;;;;10.34;37.16;100837.50;5000899;28;20057;-84
2022/03/13 10:02:14;;;;;;;18.67;13.40;;;;;;;10.50;37.49;100835.00;4997305;28;20085;-84
2022/03/13 10:04:42;;;;;;;20.50;14.15;;;;;;;10.54;37.01;100833.72;4997294;28;20050;-85
2022/03/13 10:07:10;;;;;;;21.42;14.30;;;;;;;10.74;37.26;100822.13;4996759;28;20061;-84
2022/03/13 10:09:38;;;;;;;22.75;14.43;;;;;;;10.75;36.40;100815.91;4997773;28;20054;-87
2022/03/13 10:12:08;;;;;;;20.63;13.43;;;;;;;10.93;36.79;100824.53;4997635;28;20200;-86
2022/03/13 10:14:36;;;;;;;21.10;14.73;;;;;;;10.89;36.75;100823.19;4997349;28;20046;-86
2022/03/13 10:17:05;;;;;;;19.67;14.68;;;;;;;11.16;36.86;100814.38;4996271;28;20062;-86
2022/03/13 10:19:32;;;;;;;21.77;14.23;;;;;;;11.08;37.05;100813.50;4995769;28;20061;-86
2022/03/13 10:22:07;;;;;;;22.55;15.13;;;;;;;10.97;36.76;100799.69;4996752;28;20069;-83
2022/03/13 10:24:42;;;;;;;18.92;14.82;;;;;;;11.21;37.35;100795.59;4998623;28;20101;-85
2022/03/13 10:27:14;;;;;;;24.40;15.30;;;;;;;11.39;37.31;100795.47;4994530;28;20428;-84
2022/03/13 10:29:42;;;;;;;20.73;15.30;;;;;;;11.66;37.30;100804.94;4977790;28;20129;-83
2022/03/13 10:32:09;;;;;;;19.98;14.98;;;;;;;11.48;36.94;100782.25;4976963;28;20113;-83
2022/03/13 10:34:37;;;;;;;21.67;15.32;;;;;;;11.68;37.20;100792.50;4978810;28;20121;-83
2022/03/13 10:37:06;;;;;;;22.30;15.60;;;;;;;11.70;37.12;100790.53;4977597;28;20051;-84
2022/03/13 10:39:36;;;;;;;22.88;15.10;;;;;;;12.09;37.05;100780.31;4977963;28;20043;-84
2022/03/13 10:42:03;;;;;;;24.58;15.60;;;;;;;12.12;37.43;100780.81;4979021;28;20062;-84
2022/03/13 10:44:35;;;;;;;23.77;15.55;;;;;;;12.08;36.97;100776.06;4978273;28;20046;-83
2022/03/13 10:47:05;;;;;;;21.52;15.18;;;;;;;12.11;37.21;100784.44;4977109;28;20465;-83
2022/03/13 10:49:36;;;;;;;21.88;15.40;;;;;;;12.24;36.71;100779.53;4978162;28;20046;-83
2022/03/13 10:52:22;;;;;;;21.38;14.98;;;;;;;12.17;35.98;100773.28;4977609;28;20650;-84
2022/03/13 10:54:49;;;;;;;20.83;15.52;;;;;;;12.37;36.18;100773.78;4974940;28;20082;-84
2022/03/13 10:57:16;;;;;;;22.45;15.82;;;;;;;12.57;35.96;100772.47;4978648;28;20058;-84
2022/03/13 10:59:43;;;;;;;23.40;15.70;;;;;;;12.80;36.71;100769.94;4977210;28;20062;-84
2022/03/13 11:02:17;;;;;;;23.55;16.67;;;;;;;13.11;36.15;100770.06;4977488;28;20061;-85
2022/03/13 11:04:49;;;;;;;23.90;16.70;;;;;;;13.00;35.38;100769.59;4977273;28;20055;-84
2022/03/13 11:07:18;;;;;;;23.45;16.52;;;;;;;12.95;36.31;100763.03;4977671;28;20089;-84
2022/03/13 11:09:45;;;;;;;24.77;16.20;;;;;;;13.24;35.98;100767.72;4976922;28;20089;-84
2022/03/13 11:12:15;;;;;;;21.63;15.95;;;;;;;13.32;36.05;100759.00;4977377;28;20050;-84
2022/03/13 11:14:43;;;;;;;24.48;16.15;;;;;;;13.33;35.79;100755.38;4975645;28;20074;-84
2022/03/13 11:17:11;;;;;;;23.10;17.33;;;;;;;13.65;36.68;100756.22;4978066;28;20062;-83
2022/03/13 11:19:39;;;;;;;24.92;16.65;;;;;;;13.90;37.32;100753.25;5039880;23;20049;-83